createdAt,value
2023-05-05T00:02:07.768Z,100.00
2023-05-05T00:04:37.946Z,100.00
2023-05-05T00:07:10.730Z,100.00
2023-05-05T00:09:40.827Z,100.00
2023-05-05T00:12:11.343Z,100.00
2023-05-05T00:14:41.455Z,100.00
2023-05-05T00:17:11.795Z,100.00
2023-05-05T00:19:42.054Z,100.00
2023-05-05T00:22:14.920Z,100.00
2023-05-05T00:24:45.053Z,100.00
2023-05-05T00:27:15.183Z,100.00
2023-05-05T00:29:45.330Z,100.00
2023-05-05T00:32:18.765Z,100.00
2023-05-05T00:34:52.390Z,100.00
2023-05-05T00:37:30.922Z,100.00
2023-05-05T00:40:02.505Z,100.00
2023-05-05T00:42:42.679Z,100.00
2023-05-05T00:45:16.080Z,100.00
2023-05-05T00:47:49.336Z,100.00
2023-05-05T00:50:26.707Z,100.00
2023-05-05T00:53:02.277Z,100.00
2023-05-05T00:55:33.347Z,100.00
2023-05-05T00:58:05.922Z,100.00
2023-05-05T01:00:37.537Z,100.00
2023-05-05T01:03:08.345Z,100.00
2023-05-05T01:05:45.654Z,100.00
2023-05-05T01:08:32.570Z,100.00
2023-05-05T01:11:10.920Z,100.00
2023-05-05T01:13:53.160Z,100.00
2023-05-05T01:16:28.947Z,100.00
2023-05-05T01:19:12.692Z,100.00
2023-05-05T01:21:49.972Z,100.00
2023-05-05T01:24:45.818Z,100.00
2023-05-05T01:27:34.426Z,100.00
2023-05-05T01:30:13.557Z,100.00
2023-05-05T01:32:51.013Z,100.00
2023-05-05T01:35:24.258Z,100.00
2023-05-05T01:38:02.230Z,100.00
2023-05-05T01:40:37.025Z,100.00
2023-05-05T01:43:09.727Z,100.00
2023-05-05T01:45:45.267Z,100.00
2023-05-05T01:48:20.895Z,100.00
2023-05-05T01:50:53.126Z,100.00
2023-05-05T01:53:26.304Z,100.00
2023-05-05T01:55:59.544Z,100.00
2023-05-05T01:58:32.703Z,100.00
2023-05-05T02:01:04.852Z,100.00
2023-05-05T02:03:40.793Z,100.00
2023-05-05T02:06:13.263Z,100.00
2023-05-05T02:08:45.197Z,100.00
2023-05-05T02:11:16.014Z,100.00
2023-05-05T02:13:47.952Z,100.00
2023-05-05T02:16:20.830Z,100.00
2023-05-05T02:18:54.806Z,100.00
2023-05-05T02:21:25.093Z,100.00
2023-05-05T02:23:56.146Z,100.00
2023-05-05T02:26:27.737Z,100.00
2023-05-05T02:29:07.582Z,100.00
2023-05-05T02:31:42.479Z,100.00
2023-05-05T02:34:19.448Z,100.00
2023-05-05T02:36:54.649Z,100.00
2023-05-05T02:39:33.785Z,100.00
2023-05-05T02:42:11.746Z,100.00
2023-05-05T02:44:45.623Z,100.00
2023-05-05T02:47:16.895Z,100.00
2023-05-05T02:49:49.970Z,100.00
2023-05-05T02:52:20.145Z,100.00
2023-05-05T02:54:51.375Z,100.00
2023-05-05T02:57:28.095Z,100.00
2023-05-05T03:00:09.846Z,100.00
2023-05-05T03:02:47.665Z,100.00
2023-05-05T03:05:25.760Z,100.00
2023-05-05T03:07:59.397Z,100.00
2023-05-05T03:10:34.088Z,100.00
2023-05-05T03:13:07.462Z,100.00
2023-05-05T03:15:49.323Z,100.00
2023-05-05T03:18:25.562Z,100.00
2023-05-05T03:21:10.919Z,100.00
2023-05-05T03:23:44.262Z,100.00
2023-05-05T03:26:21.684Z,100.00
2023-05-05T03:28:51.807Z,100.00
2023-05-05T03:31:28.747Z,100.00
2023-05-05T03:34:02.221Z,100.00
2023-05-05T03:36:42.244Z,100.00
2023-05-05T03:39:15.413Z,100.00
2023-05-05T03:41:45.893Z,100.00
2023-05-05T03:44:17.985Z,100.00
2023-05-05T03:46:48.075Z,100.00
2023-05-05T03:49:19.377Z,100.00
2023-05-05T03:51:54.135Z,100.00
2023-05-05T03:54:24.481Z,100.00
2023-05-05T03:56:56.343Z,100.00
2023-05-05T03:59:26.604Z,100.00
2023-05-05T04:01:57.054Z,100.00
2023-05-05T04:04:27.683Z,100.00
2023-05-05T04:07:00.608Z,100.00
2023-05-05T04:09:30.902Z,100.00
2023-05-05T04:12:01.303Z,100.00
2023-05-05T04:14:31.676Z,100.00
2023-05-05T04:17:01.866Z,100.00
2023-05-05T04:19:34.670Z,100.00
2023-05-05T04:22:09.274Z,100.00
2023-05-05T04:24:39.523Z,100.00
2023-05-05T04:27:09.844Z,100.00
2023-05-05T04:29:40.130Z,100.00
2023-05-05T04:32:10.955Z,100.00
2023-05-05T04:34:41.635Z,100.00
2023-05-05T04:37:14.696Z,100.00
2023-05-05T04:39:44.876Z,100.00
2023-05-05T04:42:15.088Z,100.00
2023-05-05T04:44:45.299Z,100.00
2023-05-05T04:47:15.497Z,100.00
2023-05-05T04:49:46.480Z,100.00
2023-05-05T04:52:19.286Z,100.00
2023-05-05T04:54:49.619Z,100.00
2023-05-05T04:57:19.804Z,100.00
2023-05-05T04:59:49.999Z,100.00
2023-05-05T05:02:20.893Z,100.00
2023-05-05T05:04:52.901Z,100.00
2023-05-05T05:07:26.216Z,100.00
2023-05-05T05:09:56.540Z,100.00
2023-05-05T05:12:28.556Z,100.00
2023-05-05T05:14:58.779Z,100.00
2023-05-05T05:17:30.288Z,100.00
2023-05-05T05:20:05.124Z,100.00
2023-05-05T05:22:39.685Z,100.00
2023-05-05T05:25:14.497Z,100.00
2023-05-05T05:27:46.801Z,100.00
2023-05-05T05:30:21.197Z,100.00
2023-05-05T05:32:51.483Z,100.00
2023-05-05T05:35:21.807Z,100.00
2023-05-05T05:37:54.803Z,100.00
2023-05-05T05:40:25.040Z,100.00
2023-05-05T05:42:55.473Z,100.00
2023-05-05T05:45:28.485Z,100.00
2023-05-05T05:47:58.945Z,100.00
2023-05-05T05:50:29.163Z,100.00
2023-05-05T05:53:04.012Z,100.00
2023-05-05T05:55:34.644Z,100.00
2023-05-05T05:58:05.517Z,100.00
2023-05-05T06:00:36.076Z,100.00
2023-05-05T06:03:10.674Z,100.00
2023-05-05T06:05:42.347Z,100.00
2023-05-05T06:08:15.196Z,100.00
2023-05-05T06:10:50.365Z,100.00
2023-05-05T06:13:22.681Z,100.00
2023-05-05T06:15:55.430Z,100.00
2023-05-05T06:18:26.349Z,100.00
2023-05-05T06:20:56.641Z,100.00
2023-05-05T06:23:33.149Z,100.00
2023-05-05T06:26:07.483Z,100.00
2023-05-05T06:28:37.748Z,100.00
2023-05-05T06:31:08.139Z,100.00
2023-05-05T06:33:38.396Z,100.00
2023-05-05T06:36:09.104Z,100.00
2023-05-05T06:38:41.966Z,100.00
2023-05-05T06:41:12.182Z,100.00
2023-05-05T06:43:43.271Z,100.00
2023-05-05T06:46:15.580Z,100.00
2023-05-05T06:48:45.788Z,100.00
2023-05-05T06:51:15.904Z,100.00
2023-05-05T06:53:49.797Z,100.00
2023-05-05T06:56:20.218Z,100.00
2023-05-05T06:58:50.725Z,100.00
2023-05-05T07:01:21.045Z,100.00
2023-05-05T07:03:51.295Z,100.00
2023-05-05T07:06:21.515Z,100.00
2023-05-05T07:08:54.333Z,100.00
2023-05-05T07:11:24.522Z,100.00
2023-05-05T07:13:54.679Z,100.00
2023-05-05T07:16:28.070Z,100.00
2023-05-05T07:18:58.417Z,100.00
2023-05-05T07:21:28.555Z,100.00
2023-05-05T07:24:01.373Z,100.00
2023-05-05T07:26:31.712Z,100.00
2023-05-05T07:29:01.863Z,100.00
2023-05-05T07:31:32.013Z,100.00
2023-05-05T07:34:02.195Z,100.00
2023-05-05T07:36:32.470Z,100.00
2023-05-05T07:39:05.365Z,100.00
2023-05-05T07:41:36.112Z,100.00
2023-05-05T07:44:06.302Z,100.00
2023-05-05T07:46:36.733Z,100.00
2023-05-05T07:49:06.993Z,100.00
2023-05-05T07:51:37.182Z,100.00
2023-05-05T07:54:10.030Z,100.00
2023-05-05T07:56:40.161Z,100.00
2023-05-05T07:59:10.347Z,100.00
2023-05-05T08:01:40.540Z,100.00
2023-05-05T08:04:10.886Z,100.00
2023-05-05T08:06:41.014Z,100.00
2023-05-05T08:09:14.030Z,100.00
2023-05-05T08:11:44.236Z,100.00
2023-05-05T08:14:15.395Z,100.00
2023-05-05T08:16:45.599Z,100.00
2023-05-05T08:19:27.539Z,100.00
2023-05-05T08:22:00.565Z,100.00
2023-05-05T08:24:34.062Z,100.00
2023-05-05T08:27:04.471Z,100.00
2023-05-05T08:29:34.702Z,100.00
2023-05-05T08:32:04.843Z,100.00
2023-05-05T08:34:34.914Z,100.00
2023-05-05T08:37:06.364Z,100.00
2023-05-05T08:39:39.412Z,100.00
2023-05-05T08:42:09.718Z,100.00
2023-05-05T08:44:39.991Z,100.00
2023-05-05T08:47:13.751Z,100.00
2023-05-05T08:49:49.748Z,100.00
2023-05-05T08:52:24.409Z,100.00
2023-05-05T08:55:01.089Z,100.00
2023-05-05T08:57:39.275Z,100.00
2023-05-05T09:00:11.607Z,98.98
2023-05-05T09:02:43.994Z,100.00
2023-05-05T09:05:14.266Z,99.07
2023-05-05T09:07:44.858Z,100.00
2023-05-05T09:10:17.903Z,93.98
2023-05-05T09:12:49.759Z,93.92
2023-05-05T09:15:20.256Z,92.44
2023-05-05T09:17:50.550Z,93.23
2023-05-05T09:20:20.784Z,91.69
2023-05-05T09:22:51.132Z,89.62
2023-05-05T09:25:23.916Z,95.73
2023-05-05T09:27:57.849Z,96.59
2023-05-05T09:30:29.067Z,83.58
2023-05-05T09:33:02.447Z,88.69
2023-05-05T09:35:32.299Z,82.69
2023-05-05T09:38:16.575Z,87.20
2023-05-05T09:40:54.086Z,90.69
2023-05-05T09:43:25.538Z,92.93
2023-05-05T09:46:09.225Z,95.20
2023-05-05T09:48:41.848Z,94.50
2023-05-05T09:51:11.973Z,88.08
2023-05-05T09:53:44.143Z,87.53
2023-05-05T09:56:16.924Z,95.14
2023-05-05T09:58:47.164Z,100.00
2023-05-05T10:01:25.786Z,90.61
2023-05-05T10:03:56.206Z,86.02
2023-05-05T10:06:42.965Z,86.23
2023-05-05T10:09:13.169Z,94.57
2023-05-05T10:11:49.151Z,91.79
2023-05-05T10:14:22.652Z,84.71
2023-05-05T10:16:54.215Z,86.34
2023-05-05T10:19:25.715Z,87.16
2023-05-05T10:22:02.555Z,84.88
2023-05-05T10:24:41.754Z,76.11
2023-05-05T10:27:20.698Z,81.85
2023-05-05T10:29:58.129Z,89.13
2023-05-05T10:35:05.548Z,79.68
2023-05-05T10:37:36.943Z,80.68
2023-05-05T10:40:08.860Z,77.58
2023-05-05T10:42:42.703Z,75.04
2023-05-05T10:45:13.377Z,69.05
2023-05-05T10:47:44.611Z,78.10
2023-05-05T10:50:24.349Z,71.41
2023-05-05T10:53:06.585Z,77.79
2023-05-05T10:55:43.073Z,76.62
2023-05-05T10:58:43.712Z,81.49
2023-05-05T11:01:33.441Z,79.70
2023-05-05T11:04:22.342Z,76.76
2023-05-05T11:07:22.359Z,72.57
2023-05-05T11:10:02.380Z,68.31
2023-05-05T11:12:33.372Z,74.94
2023-05-05T11:15:35.769Z,75.77
2023-05-05T11:18:09.527Z,60.79
2023-05-05T11:21:15.866Z,71.82
2023-05-05T11:23:48.051Z,70.17
2023-05-05T11:26:19.151Z,67.50
2023-05-05T11:29:03.757Z,70.53
2023-05-05T11:31:34.931Z,76.07
2023-05-05T11:34:34.603Z,64.27
2023-05-05T11:37:07.693Z,69.06
2023-05-05T11:39:49.327Z,68.60
2023-05-05T11:42:27.356Z,64.36
2023-05-05T11:44:57.824Z,67.13
2023-05-05T11:47:32.598Z,68.08
2023-05-05T11:50:20.261Z,60.63
2023-05-05T11:52:51.032Z,64.88
2023-05-05T11:55:27.935Z,67.13
2023-05-05T11:57:58.137Z,63.49
2023-05-05T12:00:37.590Z,62.39
2023-05-05T12:03:09.802Z,62.96
2023-05-05T12:05:43.470Z,66.00
2023-05-05T12:08:15.027Z,68.09
2023-05-05T12:10:45.366Z,67.88
2023-05-05T12:13:21.699Z,59.48
2023-05-05T12:15:52.179Z,57.93
2023-05-05T12:18:22.588Z,56.16
2023-05-05T12:20:55.366Z,59.65
2023-05-05T12:23:27.581Z,60.50
2023-05-05T12:25:57.767Z,61.13
2023-05-05T12:28:27.900Z,61.02
2023-05-05T12:31:01.566Z,59.44
2023-05-05T12:33:31.937Z,61.78
2023-05-05T12:36:04.853Z,58.90
2023-05-05T12:38:34.991Z,61.66
2023-05-05T12:41:06.116Z,64.04
2023-05-05T12:43:38.945Z,62.90
2023-05-05T12:46:11.356Z,68.31
2023-05-05T12:48:47.919Z,67.14
2023-05-05T12:51:23.595Z,59.09
2023-05-05T12:54:06.424Z,58.49
2023-05-05T12:56:38.566Z,61.04
2023-05-05T12:59:10.355Z,60.27
2023-05-05T13:01:56.489Z,57.75
2023-05-05T13:04:28.086Z,58.71
2023-05-05T13:07:16.052Z,58.38
2023-05-05T13:09:46.346Z,57.16
2023-05-05T13:12:16.742Z,57.91
2023-05-05T13:14:47.043Z,63.57
2023-05-05T13:17:17.945Z,56.42
2023-05-05T13:19:48.985Z,63.73
2023-05-05T13:22:22.282Z,60.34
2023-05-05T13:25:07.289Z,55.75
2023-05-05T13:27:38.062Z,58.66
2023-05-05T13:30:09.520Z,57.41
2023-05-05T13:32:39.838Z,54.19
2023-05-05T13:35:13.191Z,59.27
2023-05-05T13:37:50.367Z,59.27
2023-05-05T13:40:20.487Z,54.68
2023-05-05T13:42:50.622Z,56.26
2023-05-05T13:45:20.908Z,59.16
2023-05-05T13:47:51.352Z,54.61
2023-05-05T13:50:21.725Z,53.68
2023-05-05T13:52:54.459Z,53.95
2023-05-05T13:55:24.625Z,53.44
2023-05-05T13:57:54.709Z,53.51
2023-05-05T14:00:25.214Z,55.99
2023-05-05T14:02:55.769Z,56.59
2023-05-05T14:05:26.261Z,53.78
2023-05-05T14:07:59.874Z,60.68
2023-05-05T14:10:31.272Z,57.55
2023-05-05T14:13:01.362Z,58.22
2023-05-05T14:15:31.788Z,55.25
2023-05-05T14:18:02.486Z,56.60
2023-05-05T14:20:32.864Z,60.30
2023-05-05T14:23:05.648Z,55.37
2023-05-05T14:25:36.083Z,56.60
2023-05-05T14:28:06.450Z,60.25
2023-05-05T14:30:36.848Z,60.70
2023-05-05T14:33:07.165Z,59.47
2023-05-05T14:35:39.721Z,61.96
2023-05-05T14:38:12.531Z,56.32
2023-05-05T14:40:42.630Z,59.05
2023-05-05T14:43:12.748Z,58.44
2023-05-05T14:45:44.470Z,66.01
2023-05-05T14:48:14.713Z,59.60
2023-05-05T14:50:46.533Z,59.75
2023-05-05T14:53:19.603Z,61.62
2023-05-05T14:55:49.751Z,61.30
2023-05-05T14:58:22.620Z,57.69
2023-05-05T15:00:53.216Z,55.09
2023-05-05T15:03:23.620Z,55.72
2023-05-05T15:05:53.985Z,59.91
2023-05-05T15:08:26.788Z,58.66
2023-05-05T15:10:56.939Z,58.51
2023-05-05T15:13:27.055Z,61.44
2023-05-05T15:15:57.279Z,54.46
2023-05-05T15:18:27.605Z,61.24
2023-05-05T15:20:57.669Z,57.40
2023-05-05T15:23:30.381Z,60.98
2023-05-05T15:26:00.516Z,56.88
2023-05-05T15:28:30.902Z,57.87
2023-05-05T15:31:02.562Z,56.49
2023-05-05T15:33:33.797Z,59.03
2023-05-05T15:36:04.024Z,60.60
2023-05-05T15:38:36.843Z,58.63
2023-05-05T15:41:09.483Z,56.09
2023-05-05T15:43:39.618Z,60.33
2023-05-05T15:46:09.816Z,55.74
2023-05-05T15:48:40.020Z,56.43
2023-05-05T15:51:10.152Z,57.57
2023-05-05T15:53:42.901Z,59.14
2023-05-05T15:56:13.421Z,59.56
2023-05-05T15:58:43.582Z,57.75
2023-05-05T16:01:15.779Z,59.41
2023-05-05T16:03:46.199Z,61.10
2023-05-05T16:06:16.347Z,61.99
2023-05-05T16:08:51.866Z,58.86
2023-05-05T16:11:23.750Z,61.82
2023-05-05T16:13:53.903Z,63.25
2023-05-05T16:16:24.222Z,60.10
2023-05-05T16:18:54.371Z,62.25
2023-05-05T16:21:24.712Z,61.11
2023-05-05T16:23:57.502Z,63.15
2023-05-05T16:26:27.646Z,64.27
2023-05-05T16:28:57.781Z,59.48
2023-05-05T16:31:28.033Z,61.07
2023-05-05T16:33:58.241Z,62.47
2023-05-05T16:36:28.379Z,63.69
2023-05-05T16:39:01.108Z,65.27
2023-05-05T16:41:31.321Z,65.38
2023-05-05T16:44:16.930Z,61.42
2023-05-05T16:46:47.158Z,60.21
2023-05-05T16:49:17.290Z,62.67
2023-05-05T16:51:47.437Z,63.57
2023-05-05T16:54:17.541Z,63.75
2023-05-05T16:56:47.738Z,66.02
2023-05-05T16:59:22.072Z,66.94
2023-05-05T17:01:52.263Z,68.33
2023-05-05T17:04:22.451Z,67.45
2023-05-05T17:06:52.606Z,64.64
2023-05-05T17:09:25.042Z,70.72
2023-05-05T17:11:55.184Z,73.23
2023-05-05T17:14:28.025Z,77.04
2023-05-05T17:16:58.103Z,78.88
2023-05-05T17:19:28.205Z,78.34
2023-05-05T17:21:58.391Z,82.24
2023-05-05T17:24:28.550Z,87.87
2023-05-05T17:26:58.707Z,88.85
2023-05-05T17:29:31.507Z,92.39
2023-05-05T17:32:01.858Z,95.22
2023-05-05T17:34:32.201Z,96.32
2023-05-05T17:37:02.296Z,97.66
2023-05-05T17:39:32.487Z,98.76
2023-05-05T17:42:02.558Z,99.91
2023-05-05T17:44:35.331Z,100.00
2023-05-05T17:47:07.934Z,100.00
2023-05-05T17:49:38.155Z,100.00
2023-05-05T17:52:08.318Z,100.00
2023-05-05T17:54:38.504Z,100.00
2023-05-05T17:57:08.676Z,100.00
2023-05-05T17:59:41.640Z,100.00
2023-05-05T18:02:11.982Z,100.00
2023-05-05T18:04:42.743Z,100.00
2023-05-05T18:07:14.877Z,100.00
2023-05-05T18:09:45.112Z,100.00
2023-05-05T18:12:15.329Z,100.00
2023-05-05T18:14:48.059Z,100.00
2023-05-05T18:17:18.305Z,100.00
2023-05-05T18:19:50.066Z,100.00
2023-05-05T18:22:20.191Z,100.00
2023-05-05T18:24:50.375Z,100.00
2023-05-05T18:27:20.697Z,100.00
2023-05-05T18:29:53.397Z,100.00
2023-05-05T18:32:24.091Z,100.00
2023-05-05T18:34:54.297Z,100.00
2023-05-05T18:37:24.502Z,100.00
2023-05-05T18:39:54.650Z,100.00
2023-05-05T18:42:24.845Z,100.00
2023-05-05T18:44:57.790Z,100.00
2023-05-05T18:47:28.830Z,100.00
2023-05-05T18:49:58.991Z,100.00
2023-05-05T18:52:31.631Z,100.00
2023-05-05T18:55:02.232Z,100.00
2023-05-05T18:57:32.405Z,100.00
2023-05-05T19:00:05.155Z,100.00
2023-05-05T19:02:35.317Z,100.00
2023-05-05T19:05:05.561Z,100.00
2023-05-05T19:07:36.114Z,100.00
2023-05-05T19:10:07.641Z,100.00
2023-05-05T19:12:37.933Z,100.00
2023-05-05T19:15:13.792Z,100.00
2023-05-05T19:17:43.982Z,100.00
2023-05-05T19:20:14.821Z,100.00
2023-05-05T19:22:44.970Z,100.00
2023-05-05T19:25:15.677Z,100.00
2023-05-05T19:27:45.969Z,100.00
2023-05-05T19:30:18.997Z,100.00
2023-05-05T19:32:51.477Z,100.00
2023-05-05T19:35:22.561Z,100.00
2023-05-05T19:37:52.755Z,100.00
2023-05-05T19:40:22.941Z,100.00
2023-05-05T19:42:53.142Z,100.00
2023-05-05T19:45:26.670Z,100.00
2023-05-05T19:47:56.973Z,100.00
2023-05-05T19:50:27.254Z,100.00
2023-05-05T19:52:57.977Z,100.00
2023-05-05T19:55:30.226Z,100.00
2023-05-05T19:58:00.352Z,100.00
2023-05-05T20:00:33.621Z,100.00
2023-05-05T20:03:04.121Z,100.00
2023-05-05T20:05:34.338Z,100.00
2023-05-05T20:08:04.507Z,100.00
2023-05-05T20:10:34.688Z,100.00
2023-05-05T20:13:05.056Z,100.00
2023-05-05T20:15:38.391Z,100.00
2023-05-05T20:18:08.770Z,100.00
2023-05-05T20:20:38.950Z,100.00
2023-05-05T20:23:14.358Z,100.00
2023-05-05T20:25:44.571Z,100.00
2023-05-05T20:28:14.735Z,100.00
2023-05-05T20:30:48.851Z,100.00
2023-05-05T20:33:19.231Z,100.00
2023-05-05T20:35:49.320Z,100.00
2023-05-05T20:38:19.456Z,100.00
2023-05-05T20:40:49.696Z,100.00
2023-05-05T20:43:20.065Z,100.00
2023-05-05T20:45:53.372Z,100.00
2023-05-05T20:48:23.575Z,100.00
2023-05-05T20:50:54.173Z,100.00
2023-05-05T20:53:25.643Z,100.00
2023-05-05T20:55:55.848Z,100.00
2023-05-05T20:58:26.110Z,100.00
2023-05-05T21:00:59.301Z,100.00
2023-05-05T21:03:29.629Z,100.00
2023-05-05T21:05:59.902Z,100.00
2023-05-05T21:08:30.046Z,100.00
2023-05-05T21:11:00.169Z,100.00
2023-05-05T21:13:32.253Z,100.00
2023-05-05T21:16:05.111Z,100.00
2023-05-05T21:18:35.226Z,100.00
2023-05-05T21:21:08.437Z,100.00
2023-05-05T21:23:38.544Z,100.00
2023-05-05T21:26:08.915Z,100.00
2023-05-05T21:28:39.178Z,100.00
2023-05-05T21:31:21.888Z,100.00
2023-05-05T21:33:52.533Z,100.00
2023-05-05T21:36:22.824Z,100.00
2023-05-05T21:38:55.682Z,100.00
2023-05-05T21:41:26.380Z,100.00
2023-05-05T21:43:56.564Z,100.00
2023-05-05T21:46:29.565Z,100.00
2023-05-05T21:48:59.717Z,100.00
2023-05-05T21:51:29.929Z,100.00
2023-05-05T21:54:00.068Z,100.00
2023-05-05T21:56:30.220Z,100.00
2023-05-05T21:59:00.306Z,100.00
2023-05-05T22:01:33.156Z,100.00
2023-05-05T22:04:03.390Z,100.00
2023-05-05T22:06:33.569Z,100.00
2023-05-05T22:09:03.739Z,100.00
2023-05-05T22:11:34.123Z,100.00
2023-05-05T22:14:04.266Z,100.00
2023-05-05T22:16:37.117Z,100.00
2023-05-05T22:19:07.278Z,100.00
2023-05-05T22:21:37.428Z,100.00
2023-05-05T22:24:08.611Z,100.00
2023-05-05T22:26:40.102Z,100.00
2023-05-05T22:29:10.285Z,100.00
2023-05-05T22:31:43.088Z,100.00
2023-05-05T22:34:14.127Z,100.00
2023-05-05T22:36:44.202Z,100.00
2023-05-05T22:39:14.419Z,100.00
2023-05-05T22:41:44.582Z,100.00
2023-05-05T22:44:14.945Z,100.00
2023-05-05T22:46:47.718Z,100.00
2023-05-05T22:49:18.064Z,100.00
2023-05-05T22:51:48.229Z,100.00
2023-05-05T22:54:18.367Z,100.00
2023-05-05T22:56:48.904Z,100.00
2023-05-05T22:59:18.993Z,100.00
2023-05-05T23:01:51.759Z,100.00
2023-05-05T23:04:22.023Z,100.00
2023-05-05T23:06:52.209Z,100.00
2023-05-05T23:09:22.341Z,100.00
2023-05-05T23:11:52.457Z,100.00
2023-05-05T23:14:22.666Z,100.00
2023-05-05T23:16:55.394Z,100.00
2023-05-05T23:19:25.496Z,100.00
2023-05-05T23:21:55.901Z,100.00
2023-05-05T23:24:26.038Z,100.00
2023-05-05T23:26:56.894Z,100.00
2023-05-05T23:29:26.992Z,100.00
2023-05-05T23:32:00.194Z,100.00
2023-05-05T23:34:30.471Z,100.00
2023-05-05T23:37:00.646Z,100.00
2023-05-05T23:39:31.419Z,100.00
2023-05-05T23:42:01.552Z,100.00
2023-05-05T23:44:31.710Z,100.00
2023-05-05T23:47:04.456Z,100.00
2023-05-05T23:49:34.597Z,100.00
2023-05-05T23:52:07.010Z,100.00
2023-05-05T23:54:40.624Z,100.00
2023-05-05T23:57:10.409Z,100.00
2023-05-05T23:59:42.449Z,100.00
